createdAt,value
2019-05-01T00:01:15.902Z,17.17
2019-05-01T00:04:14.430Z,19.73
2019-05-01T00:06:48.822Z,18.60
2019-05-01T00:09:20.444Z,18.77
2019-05-01T00:11:50.871Z,16.03
2019-05-01T00:14:21.477Z,21.97
2019-05-01T00:16:52.009Z,24.37
2019-05-01T00:19:23.466Z,13.60
2019-05-01T00:21:53.843Z,15.93
2019-05-01T00:24:24.419Z,15.07
2019-05-01T00:26:54.851Z,15.77
2019-05-01T00:29:26.136Z,14.73
2019-05-01T00:31:56.652Z,16.73
2019-05-01T00:34:27.225Z,15.50
2019-05-01T00:36:57.647Z,16.20
2019-05-01T00:39:34.663Z,16.07
2019-05-01T00:42:05.111Z,16.60
2019-05-01T00:44:35.813Z,16.70
2019-05-01T00:47:06.373Z,17.10
2019-05-01T00:49:39.522Z,17.03
2019-05-01T00:52:09.824Z,16.80
2019-05-01T00:54:41.839Z,17.67
2019-05-01T00:57:19.882Z,20.60
2019-05-01T01:00:27.464Z,22.97
2019-05-01T01:02:58.474Z,24.93
2019-05-01T01:05:29.202Z,23.53
2019-05-01T01:07:59.658Z,18.73
2019-05-01T01:10:30.130Z,20.67
2019-05-01T01:13:00.645Z,17.23
2019-05-01T01:15:31.203Z,18.33
2019-05-01T01:18:01.648Z,16.67
2019-05-01T01:20:32.283Z,17.03
2019-05-01T01:23:03.356Z,14.10
2019-05-01T01:25:33.960Z,14.77
2019-05-01T01:28:04.399Z,16.60
2019-05-01T01:30:34.832Z,20.80
2019-05-01T01:33:05.354Z,20.37
2019-05-01T01:35:35.827Z,21.67
2019-05-01T01:38:06.534Z,22.30
2019-05-01T01:40:37.998Z,16.27
2019-05-01T01:43:26.503Z,17.70
2019-05-01T01:45:58.458Z,17.47
2019-05-01T01:48:28.817Z,16.20
2019-05-01T01:50:59.453Z,16.67
2019-05-01T01:53:31.053Z,15.73
2019-05-01T01:56:01.555Z,22.60
2019-05-01T01:58:32.161Z,15.90
2019-05-01T02:01:20.339Z,16.47
2019-05-01T02:03:55.275Z,17.27
2019-05-01T02:06:25.704Z,18.67
2019-05-01T02:08:56.877Z,16.03
2019-05-01T02:11:27.795Z,14.53
2019-05-01T02:13:58.482Z,13.37
2019-05-01T02:16:28.933Z,15.43
2019-05-01T02:18:59.247Z,16.83
2019-05-01T02:21:29.688Z,17.27
2019-05-01T02:24:00.047Z,16.20
2019-05-01T02:26:34.800Z,15.47
2019-05-01T02:29:12.862Z,16.63
2019-05-01T02:31:46.660Z,16.23
2019-05-01T02:34:19.095Z,17.90
2019-05-01T02:36:51.984Z,14.80
2019-05-01T02:39:23.466Z,16.60
2019-05-01T02:41:55.619Z,17.17
2019-05-01T02:44:29.600Z,14.90
2019-05-01T02:47:03.449Z,19.00
2019-05-01T02:49:53.253Z,18.43
2019-05-01T02:52:28.272Z,16.77
2019-05-01T02:55:02.691Z,16.10
2019-05-01T02:57:34.647Z,18.37
2019-05-01T03:00:05.771Z,16.40
2019-05-01T03:02:37.737Z,17.43
2019-05-01T03:05:09.492Z,22.33
2019-05-01T03:07:41.292Z,18.43
2019-05-01T03:10:11.768Z,17.63
2019-05-01T03:12:45.297Z,22.40
2019-05-01T03:15:16.398Z,17.40
2019-05-01T03:17:56.794Z,17.20
2019-05-01T03:20:37.296Z,16.33
2019-05-01T03:23:23.959Z,17.20
2019-05-01T03:25:54.782Z,17.27
2019-05-01T03:28:25.472Z,15.57
2019-05-01T03:30:56.516Z,17.47
2019-05-01T03:33:27.024Z,17.03
2019-05-01T03:35:57.691Z,16.03
2019-05-01T03:38:28.261Z,16.07
2019-05-01T03:40:58.929Z,16.90
2019-05-01T03:43:29.532Z,16.60
2019-05-01T03:46:00.155Z,18.33
2019-05-01T03:48:30.585Z,18.40
2019-05-01T03:51:01.292Z,17.40
2019-05-01T03:53:31.808Z,18.10
2019-05-01T03:56:02.074Z,15.63
2019-05-01T03:58:33.069Z,16.17
2019-05-01T04:01:38.867Z,18.87
2019-05-01T04:04:15.304Z,15.40
2019-05-01T04:06:45.774Z,16.73
2019-05-01T04:09:16.055Z,16.80
2019-05-01T04:11:46.718Z,17.43
2019-05-01T04:14:17.467Z,18.60
2019-05-01T04:16:51.968Z,20.57
2019-05-01T04:19:22.405Z,16.80
2019-05-01T04:21:58.228Z,18.83
2019-05-01T04:24:28.769Z,21.07
2019-05-01T04:26:59.204Z,17.63
2019-05-01T04:29:42.267Z,20.37
2019-05-01T04:32:20.536Z,17.70
2019-05-01T04:35:10.361Z,18.33
2019-05-01T04:37:40.937Z,21.07
2019-05-01T04:40:11.344Z,22.93
2019-05-01T04:42:41.648Z,19.13
2019-05-01T04:45:12.561Z,20.97
2019-05-01T04:47:43.063Z,19.40
2019-05-01T04:50:13.634Z,19.40
2019-05-01T04:52:44.939Z,21.33
2019-05-01T04:55:15.991Z,22.73
2019-05-01T04:57:47.078Z,22.80
2019-05-01T05:00:17.588Z,19.70
2019-05-01T05:03:04.393Z,24.93
2019-05-01T05:05:26.659Z,20.83
2019-05-01T05:07:57.114Z,24.03
2019-05-01T05:10:27.807Z,22.63
2019-05-01T05:13:17.744Z,21.93
2019-05-01T05:16:20.506Z,19.97
2019-05-01T05:18:50.876Z,20.90
2019-05-01T05:21:21.251Z,18.70
2019-05-01T05:23:51.816Z,20.03
2019-05-01T05:26:22.231Z,22.43
2019-05-01T05:28:53.204Z,21.87
2019-05-01T05:31:26.051Z,19.53
2019-05-01T05:33:59.134Z,19.43
2019-05-01T05:36:32.143Z,19.30
2019-05-01T05:39:11.865Z,19.93
2019-05-01T05:41:43.420Z,22.67
2019-05-01T05:44:14.288Z,21.50
2019-05-01T05:46:44.629Z,21.20
2019-05-01T05:49:15.942Z,21.20
2019-05-01T05:52:11.556Z,22.47
2019-05-01T05:54:59.411Z,21.60
2019-05-01T05:57:40.198Z,18.77
2019-05-01T06:00:22.701Z,22.53
2019-05-01T06:03:00.853Z,18.90
2019-05-01T06:05:57.158Z,21.80
2019-05-01T06:08:28.753Z,21.07
2019-05-01T06:11:19.697Z,16.87
2019-05-01T06:14:15.611Z,19.57
2019-05-01T06:16:57.401Z,21.87
2019-05-01T06:19:33.590Z,20.60
2019-05-01T06:22:28.242Z,25.53
2019-05-01T06:25:21.113Z,21.43
2019-05-01T06:27:44.809Z,22.33
2019-05-01T06:30:14.334Z,21.57
2019-05-01T06:32:44.383Z,22.63
2019-05-01T06:35:14.001Z,19.27
2019-05-01T06:38:03.413Z,19.90
2019-05-01T06:40:40.934Z,21.40
2019-05-01T06:43:25.293Z,22.27
2019-05-01T06:46:12.163Z,21.43
2019-05-01T06:48:48.928Z,21.93
2019-05-01T06:51:34.291Z,22.80
2019-05-01T06:54:04.387Z,23.67
2019-05-01T06:56:34.523Z,24.63
2019-05-01T06:59:04.334Z,21.37
2019-05-01T07:01:36.187Z,23.67
2019-05-01T07:04:06.211Z,23.33
2019-05-01T07:06:36.646Z,25.83
2019-05-01T07:09:11.296Z,22.40
2019-05-01T07:11:42.192Z,24.37
2019-05-01T07:14:11.018Z,27.37
2019-05-01T07:16:42.314Z,23.93
2019-05-01T07:19:12.312Z,26.53
2019-05-01T07:21:42.204Z,28.30
2019-05-01T07:24:11.927Z,26.87
2019-05-01T07:26:43.926Z,27.60
2019-05-01T07:29:16.414Z,26.73
2019-05-01T07:31:46.267Z,25.47
2019-05-01T07:34:17.097Z,27.13
2019-05-01T07:36:50.144Z,26.70
2019-05-01T07:39:18.347Z,26.27
2019-05-01T07:41:48.133Z,25.53
2019-05-01T07:44:36.883Z,27.93
2019-05-01T07:47:31.680Z,27.17
2019-05-01T07:50:03.676Z,25.80
2019-05-01T07:52:33.370Z,23.80
2019-05-01T07:55:03.598Z,24.70
2019-05-01T07:57:39.249Z,27.40
2019-05-01T08:00:08.961Z,29.27
2019-05-01T08:02:38.836Z,25.83
2019-05-01T08:05:09.908Z,26.33
2019-05-01T08:07:40.313Z,28.90
2019-05-01T08:10:10.528Z,24.97
2019-05-01T08:12:40.344Z,25.50
2019-05-01T08:15:10.157Z,25.77
2019-05-01T08:17:41.471Z,24.70
2019-05-01T08:20:33.643Z,25.40
2019-05-01T08:23:03.363Z,25.90
2019-05-01T08:25:34.336Z,24.77
2019-05-01T08:28:15.565Z,26.70
2019-05-01T08:30:57.693Z,24.50
2019-05-01T08:33:49.863Z,29.63
2019-05-01T08:36:20.867Z,23.93
2019-05-01T08:38:50.562Z,22.03
2019-05-01T08:41:20.730Z,25.03
2019-05-01T08:43:54.123Z,24.23
2019-05-01T08:46:53.392Z,24.67
2019-05-01T08:49:32.665Z,23.97
2019-05-01T08:52:04.853Z,23.63
2019-05-01T08:54:34.866Z,24.70
2019-05-01T08:57:07.819Z,25.93
2019-05-01T08:59:36.370Z,24.70
2019-05-01T09:02:09.574Z,23.07
2019-05-01T09:04:37.731Z,21.63
2019-05-01T09:07:07.557Z,25.83
2019-05-01T09:09:39.739Z,24.97
2019-05-01T09:12:11.927Z,23.47
2019-05-01T09:14:40.103Z,23.93
2019-05-01T09:17:09.984Z,24.67
2019-05-01T09:19:39.676Z,23.63
2019-05-01T09:22:09.694Z,24.00
2019-05-01T09:24:39.318Z,29.23
2019-05-01T09:27:40.335Z,23.90
2019-05-01T09:30:21.815Z,28.13
2019-05-01T09:32:54.328Z,25.00
2019-05-01T09:35:23.608Z,23.50
2019-05-01T09:37:53.319Z,25.50
2019-05-01T09:40:23.112Z,24.97
2019-05-01T09:42:58.710Z,24.30
2019-05-01T09:45:24.461Z,24.20
2019-05-01T09:47:54.342Z,23.43
2019-05-01T09:50:25.768Z,22.97
2019-05-01T09:53:18.197Z,21.27
2019-05-01T09:56:13.305Z,19.33
2019-05-01T09:58:43.119Z,22.17
2019-05-01T10:01:12.829Z,26.83
2019-05-01T10:03:44.903Z,23.83
2019-05-01T10:06:17.182Z,23.27
2019-05-01T10:08:45.366Z,20.27
2019-05-01T10:11:14.991Z,27.90
2019-05-01T10:13:44.751Z,26.57
2019-05-01T10:16:14.350Z,22.87
2019-05-01T10:18:44.175Z,22.97
2019-05-01T10:21:13.779Z,20.50
2019-05-01T10:23:47.124Z,18.30
2019-05-01T10:26:19.031Z,18.13
2019-05-01T10:29:07.451Z,20.97
2019-05-01T10:31:59.784Z,17.33
2019-05-01T10:34:38.618Z,20.07
2019-05-01T10:37:07.393Z,22.60
2019-05-01T10:39:37.640Z,17.87
2019-05-01T10:42:07.423Z,18.40
2019-05-01T10:44:37.191Z,18.17
2019-05-01T10:47:09.479Z,15.57
2019-05-01T10:49:39.350Z,16.00
2019-05-01T10:52:14.478Z,20.63
2019-05-01T10:54:40.517Z,20.07
2019-05-01T10:57:12.912Z,17.87
2019-05-01T10:59:41.531Z,18.23
2019-05-01T11:02:11.792Z,19.10
2019-05-01T11:04:41.614Z,12.83
2019-05-01T11:07:12.655Z,17.83
2019-05-01T11:09:42.560Z,17.63
2019-05-01T11:12:12.159Z,16.30
2019-05-01T11:14:42.091Z,17.77
2019-05-01T11:17:11.878Z,16.63
2019-05-01T11:19:41.822Z,13.37
2019-05-01T11:22:11.418Z,13.13
2019-05-01T11:24:41.447Z,12.07
2019-05-01T11:27:11.077Z,13.30
2019-05-01T11:29:40.988Z,12.47
2019-05-01T11:32:28.367Z,16.40
2019-05-01T11:35:12.319Z,18.87
2019-05-01T11:38:15.945Z,16.73
2019-05-01T11:46:38.503Z,14.37
2019-05-01T11:49:08.221Z,18.30
2019-05-01T11:51:37.905Z,16.77
2019-05-01T11:54:07.601Z,15.83
2019-05-01T11:56:37.646Z,14.73
2019-05-01T11:59:07.401Z,13.00
2019-05-01T12:01:37.218Z,13.33
2019-05-01T12:04:06.849Z,25.97
2019-05-01T12:06:36.821Z,61.07
2019-05-01T12:09:07.723Z,154.07
2019-05-01T12:11:39.809Z,30.70
2019-05-01T12:14:10.230Z,115.93
2019-05-01T12:17:17.835Z,52.90
2019-05-01T12:19:48.270Z,45.77
2019-05-01T12:22:18.776Z,30.20
2019-05-01T12:24:49.324Z,22.10
2019-05-01T12:27:20.073Z,21.03
2019-05-01T12:29:50.411Z,19.57
2019-05-01T12:32:20.850Z,17.90
2019-05-01T12:34:51.299Z,13.30
2019-05-01T12:37:35.190Z,13.17
2019-05-01T12:40:06.648Z,11.37
2019-05-01T12:42:38.116Z,9.40
2019-05-01T12:45:09.772Z,11.03
2019-05-01T12:47:57.543Z,10.63
2019-05-01T12:50:29.498Z,16.67
2019-05-01T12:53:15.248Z,12.40
2019-05-01T12:56:05.228Z,8.57
2019-05-01T12:58:37.211Z,10.83
2019-05-01T13:01:07.899Z,12.33
2019-05-01T13:03:38.392Z,12.10
2019-05-01T13:06:08.861Z,12.30
2019-05-01T13:08:39.278Z,12.13
2019-05-01T13:11:09.774Z,15.47
2019-05-01T13:13:40.112Z,15.37
2019-05-01T13:16:10.538Z,11.90
2019-05-01T13:18:40.823Z,39.60
2019-05-01T13:21:11.295Z,11.07
2019-05-01T13:23:41.711Z,70.47
2019-05-01T13:26:25.564Z,115.27
2019-05-01T13:29:07.139Z,124.53
2019-05-01T13:31:59.566Z,90.87
2019-05-01T13:34:29.911Z,52.37
2019-05-01T13:37:03.031Z,30.60
2019-05-01T13:39:32.558Z,62.90
2019-05-01T13:44:39.915Z,37.30
2019-05-01T13:47:11.186Z,41.50
2019-05-01T13:49:41.515Z,22.97
2019-05-01T13:52:14.940Z,19.60
2019-05-01T13:54:45.265Z,14.20
2019-05-01T13:57:16.725Z,23.77
2019-05-01T13:59:47.064Z,19.20
2019-05-01T14:02:17.515Z,9.53
2019-05-01T14:04:47.799Z,14.03
2019-05-01T14:07:19.461Z,13.03
2019-05-01T14:09:49.789Z,16.17
2019-05-01T14:12:20.158Z,13.87
2019-05-01T14:14:50.482Z,10.03
2019-05-01T14:17:22.811Z,10.97
2019-05-01T14:20:10.800Z,10.73
2019-05-01T14:22:54.083Z,10.23
2019-05-01T14:25:24.348Z,9.93
2019-05-01T14:27:54.677Z,11.17
2019-05-01T14:30:25.051Z,8.30
2019-05-01T14:32:55.391Z,8.57
2019-05-01T14:35:25.652Z,8.97
2019-05-01T14:37:56.249Z,11.40
2019-05-01T14:40:26.696Z,12.57
2019-05-01T14:42:57.018Z,12.13
2019-05-01T14:45:27.304Z,17.17
2019-05-01T14:47:57.655Z,16.37
2019-05-01T14:50:28.007Z,24.53
2019-05-01T14:52:58.355Z,17.57
2019-05-01T14:55:28.708Z,12.70
2019-05-01T14:57:59.029Z,10.20
2019-05-01T15:00:29.375Z,14.73
2019-05-01T15:02:59.727Z,11.95
2019-05-01T15:05:30.019Z,10.45
2019-05-01T15:08:00.435Z,11.95
2019-05-01T15:10:30.787Z,16.50
2019-05-01T15:13:03.854Z,11.75
2019-05-01T15:15:40.347Z,11.10
2019-05-01T15:18:14.772Z,11.00
2019-05-01T15:20:46.480Z,9.43
2019-05-01T15:23:15.606Z,10.23
2019-05-01T15:25:45.134Z,8.25
2019-05-01T15:28:14.787Z,10.30
2019-05-01T15:30:44.416Z,8.18
2019-05-01T15:33:13.952Z,7.28
2019-05-01T15:35:43.674Z,8.08
2019-05-01T15:38:13.447Z,7.78
2019-05-01T15:41:07.750Z,8.40
2019-05-01T15:43:41.124Z,12.23
2019-05-01T15:46:10.660Z,11.83
2019-05-01T15:48:40.271Z,9.87
2019-05-01T15:51:09.842Z,10.23
2019-05-01T15:53:58.686Z,10.37
2019-05-01T15:56:28.338Z,9.57
2019-05-01T15:58:57.950Z,14.37
2019-05-01T16:01:27.584Z,10.37
2019-05-01T16:03:57.203Z,7.77
2019-05-01T16:06:26.856Z,8.97
2019-05-01T16:08:56.551Z,8.73
2019-05-01T16:11:44.759Z,8.67
2019-05-01T16:14:14.407Z,7.60
2019-05-01T16:16:44.047Z,8.90
2019-05-01T16:19:13.631Z,8.27
2019-05-01T16:21:43.228Z,7.67
2019-05-01T16:24:12.900Z,9.03
2019-05-01T16:26:42.543Z,8.80
2019-05-01T16:29:12.139Z,10.63
2019-05-01T16:31:41.739Z,9.27
2019-05-01T16:34:11.328Z,8.57
2019-05-01T16:36:40.888Z,9.00
2019-05-01T16:39:27.250Z,11.43
2019-05-01T16:41:56.832Z,9.40
2019-05-01T16:44:26.588Z,12.67
2019-05-01T16:46:56.220Z,11.67
2019-05-01T16:49:25.862Z,9.87
2019-05-01T16:51:55.497Z,8.93
2019-05-01T16:54:25.246Z,10.67
2019-05-01T16:56:57.380Z,10.10
2019-05-01T16:59:26.151Z,10.77
2019-05-01T17:02:10.024Z,5.63
2019-05-01T17:04:45.495Z,6.20
2019-05-01T17:07:32.019Z,8.37
2019-05-01T17:10:22.190Z,6.70
2019-05-01T17:12:53.189Z,9.17
2019-05-01T17:15:30.142Z,13.33
2019-05-01T17:17:59.834Z,8.60
2019-05-01T17:20:29.864Z,9.07
2019-05-01T17:22:59.458Z,6.37
2019-05-01T17:25:29.586Z,8.43
2019-05-01T17:28:03.055Z,9.77
2019-05-01T17:30:40.905Z,9.43
2019-05-01T17:33:15.182Z,12.43
2019-05-01T17:35:43.077Z,8.57
2019-05-01T17:38:12.968Z,7.97
2019-05-01T17:40:42.650Z,8.93
2019-05-01T17:43:13.563Z,9.07
2019-05-01T17:45:43.402Z,6.17
2019-05-01T17:48:13.028Z,14.00
2019-05-01T17:50:42.595Z,12.23
2019-05-01T17:53:12.300Z,9.10
2019-05-01T17:55:41.840Z,8.30
2019-05-01T17:58:11.375Z,11.17
2019-05-01T18:00:58.641Z,8.47
2019-05-01T18:03:46.012Z,10.13
2019-05-01T18:06:36.247Z,7.90
2019-05-01T18:09:08.038Z,6.97
2019-05-01T18:11:38.623Z,7.73
2019-05-01T18:14:08.503Z,9.27
2019-05-01T18:16:38.055Z,10.77
2019-05-01T18:19:09.921Z,15.57
2019-05-01T18:21:40.848Z,10.77
2019-05-01T18:24:28.285Z,12.13
2019-05-01T18:27:20.493Z,16.27
2019-05-01T18:29:52.574Z,8.90
2019-05-01T18:32:28.585Z,23.77
2019-05-01T18:34:58.230Z,13.33
2019-05-01T18:37:35.165Z,9.90
2019-05-01T18:40:04.931Z,7.67
2019-05-01T18:42:34.482Z,7.97
2019-05-01T18:45:05.903Z,12.27
2019-05-01T18:47:36.103Z,10.83
2019-05-01T18:50:05.918Z,14.30
2019-05-01T18:52:35.656Z,12.77
2019-05-01T18:55:05.320Z,11.17
2019-05-01T18:57:36.226Z,10.87
2019-05-01T19:00:06.033Z,10.17
2019-05-01T19:02:35.745Z,14.47
2019-05-01T19:05:08.746Z,16.27
2019-05-01T19:07:38.468Z,16.10
2019-05-01T19:10:08.179Z,15.33
2019-05-01T19:12:37.939Z,15.20
2019-05-01T19:15:07.627Z,12.50
2019-05-01T19:17:38.185Z,12.50
2019-05-01T19:20:07.845Z,9.33
2019-05-01T19:22:37.535Z,10.90
2019-05-01T19:25:10.974Z,9.20
2019-05-01T19:27:39.544Z,11.40
2019-05-01T19:30:14.381Z,10.00
2019-05-01T19:32:40.919Z,7.47
2019-05-01T19:35:10.566Z,8.03
2019-05-01T19:37:40.732Z,7.43
2019-05-01T19:40:10.504Z,9.07
2019-05-01T19:42:40.327Z,10.30
2019-05-01T19:45:10.161Z,16.17
2019-05-01T19:47:40.297Z,13.07
2019-05-01T19:50:12.011Z,6.30
2019-05-01T19:52:41.565Z,10.63
2019-05-01T19:55:11.419Z,11.87
2019-05-01T19:57:43.006Z,10.20
2019-05-01T20:00:14.923Z,12.90
2019-05-01T20:02:44.509Z,11.10
2019-05-01T20:05:14.351Z,12.30
2019-05-01T20:07:45.484Z,15.13
2019-05-01T20:10:15.327Z,10.00
2019-05-01T20:12:44.889Z,11.77
2019-05-01T20:15:14.691Z,10.90
2019-05-01T20:17:44.757Z,15.90
2019-05-01T20:20:14.639Z,14.47
2019-05-01T20:22:48.111Z,13.07
2019-05-01T20:25:19.359Z,11.73
2019-05-01T20:27:52.984Z,9.23
2019-05-01T20:30:19.319Z,11.63
2019-05-01T20:32:49.167Z,12.37
2019-05-01T20:35:19.123Z,15.53
2019-05-01T20:37:50.681Z,13.17
2019-05-01T20:40:21.211Z,17.40
2019-05-01T20:42:50.883Z,20.43
2019-05-01T20:45:20.823Z,13.37
2019-05-01T20:47:54.229Z,13.77
2019-05-01T20:50:22.519Z,12.43
2019-05-01T20:52:52.085Z,14.90
2019-05-01T20:55:21.919Z,12.70
2019-05-01T20:57:52.028Z,9.93
2019-05-01T21:00:23.610Z,12.30
2019-05-01T21:02:53.391Z,12.33
2019-05-01T21:05:38.578Z,8.20
2019-05-01T21:08:38.961Z,17.23
2019-05-01T21:11:10.954Z,15.43
2019-05-01T21:13:40.619Z,15.47
2019-05-01T21:16:10.483Z,11.27
2019-05-01T21:18:40.239Z,11.27
2019-05-01T21:21:10.227Z,12.37
2019-05-01T21:23:39.828Z,13.63
2019-05-01T21:26:09.825Z,10.63
2019-05-01T21:28:42.124Z,13.47
2019-05-01T21:31:11.126Z,11.70
2019-05-01T21:33:40.990Z,12.43
2019-05-01T21:36:13.019Z,14.20
2019-05-01T21:38:42.610Z,14.07
2019-05-01T21:41:12.399Z,11.50
2019-05-01T21:43:42.549Z,11.80
2019-05-01T21:46:12.613Z,11.67
2019-05-01T21:48:43.615Z,13.33
2019-05-01T21:51:13.491Z,14.57
2019-05-01T21:53:46.392Z,13.67
2019-05-01T21:56:14.635Z,12.07
2019-05-01T21:58:45.274Z,13.50
2019-05-01T22:01:14.954Z,10.13
2019-05-01T22:03:44.598Z,12.07
2019-05-01T22:06:15.261Z,11.97
2019-05-01T22:08:46.674Z,11.87
2019-05-01T22:11:16.388Z,11.33
2019-05-01T22:13:46.191Z,10.90
2019-05-01T22:16:24.583Z,11.43
2019-05-01T22:19:17.306Z,12.87
2019-05-01T22:22:04.509Z,10.00
2019-05-01T22:24:59.351Z,10.53
2019-05-01T22:27:35.644Z,9.77
2019-05-01T22:30:16.818Z,11.53
2019-05-01T22:32:49.953Z,13.00
2019-05-01T22:35:24.683Z,9.97
2019-05-01T22:37:55.195Z,10.83
2019-05-01T22:40:34.853Z,11.80
2019-05-01T22:43:04.830Z,11.53
2019-05-01T22:45:34.520Z,15.03
2019-05-01T22:48:05.359Z,15.33
2019-05-01T22:50:34.983Z,13.10
2019-05-01T22:53:08.021Z,14.07
2019-05-01T22:55:36.182Z,10.53
2019-05-01T22:58:06.091Z,12.90
2019-05-01T23:00:53.077Z,13.73
2019-05-01T23:03:26.837Z,20.53
2019-05-01T23:05:56.506Z,20.67
2019-05-01T23:08:26.169Z,17.93
2019-05-01T23:10:55.891Z,17.70
2019-05-01T23:13:25.595Z,22.47
2019-05-01T23:15:56.193Z,21.00
2019-05-01T23:18:27.067Z,18.23
2019-05-01T23:20:56.770Z,16.13
2019-05-01T23:23:26.806Z,16.50
2019-05-01T23:25:56.436Z,18.20
2019-05-01T23:28:26.247Z,19.43
2019-05-01T23:30:55.990Z,27.20
2019-05-01T23:33:25.960Z,26.20
2019-05-01T23:35:55.626Z,26.53
2019-05-01T23:38:25.478Z,20.40
2019-05-01T23:40:55.206Z,17.43
2019-05-01T23:43:27.803Z,14.97
2019-05-01T23:45:56.770Z,14.37
2019-05-01T23:48:26.564Z,17.63
2019-05-01T23:50:56.159Z,17.30
2019-05-01T23:53:25.976Z,15.40
2019-05-01T23:56:00.066Z,14.53
2019-05-01T23:58:27.357Z,13.30
